sensor_id;sensor_type;location;lat;lon;timestamp;P1;durP1;ratioP1;P2;durP2;ratioP2
25319;SDS011;13256;49.012;8.610;2023-12-07T00:01:40;17.77;;;8.73;;
25319;SDS011;13256;49.012;8.610;2023-12-07T00:06:52;20.85;;;7.97;;
25319;SDS011;13256;49.012;8.610;2023-12-07T00:09:20;16.23;;;9.18;;
25319;SDS011;13256;49.012;8.610;2023-12-07T00:11:46;14.52;;;8.00;;
25319;SDS011;13256;49.012;8.610;2023-12-07T00:14:19;18.92;;;8.85;;
25319;SDS011;13256;49.012;8.610;2023-12-07T00:16:49;15.95;;;9.00;;
25319;SDS011;13256;49.012;8.610;2023-12-07T00:28:18;17.27;;;9.80;;
25319;SDS011;13256;49.012;8.610;2023-12-07T00:30:46;17.33;;;8.38;;
25319;SDS011;13256;49.012;8.610;2023-12-07T00:33:14;14.75;;;8.32;;
25319;SDS011;13256;49.012;8.610;2023-12-07T00:35:43;14.88;;;8.18;;
25319;SDS011;13256;49.012;8.610;2023-12-07T00:38:12;19.02;;;8.77;;
25319;SDS011;13256;49.012;8.610;2023-12-07T00:40:40;15.85;;;8.68;;
25319;SDS011;13256;49.012;8.610;2023-12-07T00:43:07;20.00;;;9.73;;
25319;SDS011;13256;49.012;8.610;2023-12-07T00:45:38;16.65;;;8.68;;
25319;SDS011;13256;49.012;8.610;2023-12-07T00:50:55;18.48;;;9.85;;
25319;SDS011;13256;49.012;8.610;2023-12-07T00:53:25;18.67;;;9.65;;
25319;SDS011;13256;49.012;8.610;2023-12-07T00:55:54;18.50;;;10.02;;
25319;SDS011;13256;49.012;8.610;2023-12-07T00:58:47;17.90;;;9.52;;
25319;SDS011;13256;49.012;8.610;2023-12-07T01:01:15;21.73;;;10.18;;
25319;SDS011;13256;49.012;8.610;2023-12-07T01:03:42;22.35;;;9.35;;
25319;SDS011;13256;49.012;8.610;2023-12-07T01:09:18;18.20;;;9.63;;
25319;SDS011;13256;49.012;8.610;2023-12-07T01:14:35;19.63;;;9.15;;
25319;SDS011;13256;49.012;8.610;2023-12-07T01:28:56;15.73;;;7.72;;
25319;SDS011;13256;49.012;8.610;2023-12-07T01:31:32;15.65;;;8.05;;
25319;SDS011;13256;49.012;8.610;2023-12-07T01:34:02;14.95;;;8.18;;
25319;SDS011;13256;49.012;8.610;2023-12-07T01:36:30;21.33;;;8.32;;
25319;SDS011;13256;49.012;8.610;2023-12-07T01:38:58;13.35;;;7.75;;
25319;SDS011;13256;49.012;8.610;2023-12-07T01:41:35;14.02;;;7.50;;
25319;SDS011;13256;49.012;8.610;2023-12-07T01:44:02;11.13;;;6.85;;
25319;SDS011;13256;49.012;8.610;2023-12-07T01:46:31;17.13;;;7.50;;
25319;SDS011;13256;49.012;8.610;2023-12-07T01:49:01;15.47;;;8.13;;
25319;SDS011;13256;49.012;8.610;2023-12-07T01:51:32;17.20;;;8.07;;
25319;SDS011;13256;49.012;8.610;2023-12-07T01:53:59;11.98;;;7.25;;
25319;SDS011;13256;49.012;8.610;2023-12-07T01:56:30;16.63;;;7.93;;
25319;SDS011;13256;49.012;8.610;2023-12-07T01:58:59;17.58;;;8.30;;
25319;SDS011;13256;49.012;8.610;2023-12-07T02:01:28;13.95;;;7.80;;
25319;SDS011;13256;49.012;8.610;2023-12-07T02:03:56;15.98;;;8.30;;
25319;SDS011;13256;49.012;8.610;2023-12-07T02:06:30;15.45;;;8.13;;
25319;SDS011;13256;49.012;8.610;2023-12-07T02:08:58;11.45;;;6.93;;
25319;SDS011;13256;49.012;8.610;2023-12-07T02:11:26;14.73;;;7.50;;
25319;SDS011;13256;49.012;8.610;2023-12-07T02:13:54;13.88;;;6.85;;
25319;SDS011;13256;49.012;8.610;2023-12-07T02:16:26;11.48;;;6.70;;
25319;SDS011;13256;49.012;8.610;2023-12-07T02:19:13;14.20;;;7.38;;
25319;SDS011;13256;49.012;8.610;2023-12-07T02:22:37;11.65;;;6.22;;
25319;SDS011;13256;49.012;8.610;2023-12-07T02:25:52;13.13;;;7.35;;
25319;SDS011;13256;49.012;8.610;2023-12-07T02:28:35;13.65;;;7.18;;
25319;SDS011;13256;49.012;8.610;2023-12-07T02:31:02;11.60;;;6.00;;
25319;SDS011;13256;49.012;8.610;2023-12-07T02:33:33;11.52;;;5.63;;
25319;SDS011;13256;49.012;8.610;2023-12-07T02:38:31;10.13;;;5.95;;
25319;SDS011;13256;49.012;8.610;2023-12-07T02:40:59;12.23;;;6.57;;
25319;SDS011;13256;49.012;8.610;2023-12-07T02:46:31;14.07;;;6.03;;
25319;SDS011;13256;49.012;8.610;2023-12-07T02:49:05;10.15;;;6.45;;
25319;SDS011;13256;49.012;8.610;2023-12-07T02:57:32;13.00;;;5.40;;
25319;SDS011;13256;49.012;8.610;2023-12-07T03:06:04;15.23;;;8.18;;
25319;SDS011;13256;49.012;8.610;2023-12-07T03:08:32;17.80;;;8.90;;
25319;SDS011;13256;49.012;8.610;2023-12-07T03:11:00;12.30;;;6.55;;
25319;SDS011;13256;49.012;8.610;2023-12-07T03:16:10;12.43;;;6.53;;
25319;SDS011;13256;49.012;8.610;2023-12-07T03:18:38;12.57;;;6.72;;
25319;SDS011;13256;49.012;8.610;2023-12-07T03:21:07;14.88;;;8.07;;
25319;SDS011;13256;49.012;8.610;2023-12-07T03:23:35;16.30;;;7.93;;
25319;SDS011;13256;49.012;8.610;2023-12-07T03:26:04;13.15;;;7.05;;
25319;SDS011;13256;49.012;8.610;2023-12-07T03:28:31;13.93;;;6.72;;
25319;SDS011;13256;49.012;8.610;2023-12-07T03:33:55;16.85;;;6.47;;
25319;SDS011;13256;49.012;8.610;2023-12-07T03:36:27;17.02;;;6.95;;
25319;SDS011;13256;49.012;8.610;2023-12-07T03:38:53;11.82;;;7.10;;
25319;SDS011;13256;49.012;8.610;2023-12-07T03:41:23;15.73;;;7.15;;
25319;SDS011;13256;49.012;8.610;2023-12-07T03:47:02;15.30;;;7.63;;
25319;SDS011;13256;49.012;8.610;2023-12-07T03:49:32;15.60;;;7.72;;
25319;SDS011;13256;49.012;8.610;2023-12-07T03:54:47;18.77;;;8.82;;
25319;SDS011;13256;49.012;8.610;2023-12-07T04:05:53;11.80;;;6.20;;
25319;SDS011;13256;49.012;8.610;2023-12-07T04:08:19;9.88;;;5.53;;
25319;SDS011;13256;49.012;8.610;2023-12-07T04:10:46;11.73;;;6.15;;
25319;SDS011;13256;49.012;8.610;2023-12-07T04:16:44;16.63;;;7.33;;
25319;SDS011;13256;49.012;8.610;2023-12-07T04:19:13;11.73;;;6.03;;
25319;SDS011;13256;49.012;8.610;2023-12-07T04:21:39;13.98;;;6.65;;
25319;SDS011;13256;49.012;8.610;2023-12-07T04:24:32;13.35;;;7.10;;
25319;SDS011;13256;49.012;8.610;2023-12-07T04:32:53;15.88;;;6.95;;
25319;SDS011;13256;49.012;8.610;2023-12-07T04:41:08;74.15;;;20.75;;
25319;SDS011;13256;49.012;8.610;2023-12-07T04:43:34;22.92;;;9.68;;
25319;SDS011;13256;49.012;8.610;2023-12-07T04:46:04;16.27;;;9.18;;
25319;SDS011;13256;49.012;8.610;2023-12-07T04:51:38;15.18;;;7.82;;
25319;SDS011;13256;49.012;8.610;2023-12-07T04:54:04;14.23;;;6.93;;
25319;SDS011;13256;49.012;8.610;2023-12-07T04:56:48;25.80;;;11.90;;
25319;SDS011;13256;49.012;8.610;2023-12-07T04:59:15;22.27;;;9.00;;
25319;SDS011;13256;49.012;8.610;2023-12-07T05:01:42;20.02;;;9.05;;
25319;SDS011;13256;49.012;8.610;2023-12-07T05:04:12;11.95;;;7.05;;
25319;SDS011;13256;49.012;8.610;2023-12-07T05:06:45;13.10;;;6.90;;
25319;SDS011;13256;49.012;8.610;2023-12-07T05:09:12;13.20;;;6.90;;
25319;SDS011;13256;49.012;8.610;2023-12-07T05:11:42;14.18;;;6.22;;
25319;SDS011;13256;49.012;8.610;2023-12-07T05:14:12;12.68;;;7.03;;
25319;SDS011;13256;49.012;8.610;2023-12-07T05:22:28;11.43;;;6.68;;
25319;SDS011;13256;49.012;8.610;2023-12-07T05:51:56;42.15;;;17.95;;
25319;SDS011;13256;49.012;8.610;2023-12-07T05:54:24;50.08;;;17.90;;
25319;SDS011;13256;49.012;8.610;2023-12-07T05:56:52;31.75;;;13.02;;
25319;SDS011;13256;49.012;8.610;2023-12-07T05:59:19;32.58;;;13.75;;
25319;SDS011;13256;49.012;8.610;2023-12-07T06:01:46;44.25;;;17.60;;
25319;SDS011;13256;49.012;8.610;2023-12-07T06:07:03;35.13;;;13.90;;
25319;SDS011;13256;49.012;8.610;2023-12-07T06:15:19;30.77;;;14.07;;
25319;SDS011;13256;49.012;8.610;2023-12-07T06:17:46;37.65;;;12.80;;
25319;SDS011;13256;49.012;8.610;2023-12-07T06:20:17;29.67;;;12.23;;
25319;SDS011;13256;49.012;8.610;2023-12-07T06:31:48;30.63;;;12.38;;
25319;SDS011;13256;49.012;8.610;2023-12-07T06:34:16;28.80;;;11.10;;
25319;SDS011;13256;49.012;8.610;2023-12-07T06:39:46;27.15;;;13.85;;
25319;SDS011;13256;49.012;8.610;2023-12-07T06:42:15;25.17;;;13.27;;
25319;SDS011;13256;49.012;8.610;2023-12-07T06:44:48;30.67;;;13.70;;
25319;SDS011;13256;49.012;8.610;2023-12-07T06:47:16;33.38;;;14.85;;
25319;SDS011;13256;49.012;8.610;2023-12-07T06:49:44;27.25;;;14.02;;
25319;SDS011;13256;49.012;8.610;2023-12-07T06:52:19;27.95;;;13.63;;
25319;SDS011;13256;49.012;8.610;2023-12-07T06:54:46;29.40;;;14.48;;
25319;SDS011;13256;49.012;8.610;2023-12-07T06:57:20;38.53;;;16.08;;
25319;SDS011;13256;49.012;8.610;2023-12-07T06:59:54;33.58;;;13.80;;
25319;SDS011;13256;49.012;8.610;2023-12-07T07:02:21;29.77;;;13.73;;
25319;SDS011;13256;49.012;8.610;2023-12-07T07:04:50;40.20;;;15.57;;
25319;SDS011;13256;49.012;8.610;2023-12-07T07:07:18;33.00;;;15.10;;
25319;SDS011;13256;49.012;8.610;2023-12-07T07:09:48;41.28;;;15.77;;
25319;SDS011;13256;49.012;8.610;2023-12-07T07:12:15;53.95;;;19.20;;
25319;SDS011;13256;49.012;8.610;2023-12-07T07:14:47;42.90;;;17.15;;
25319;SDS011;13256;49.012;8.610;2023-12-07T07:17:16;41.78;;;16.27;;
25319;SDS011;13256;49.012;8.610;2023-12-07T07:19:50;42.20;;;15.52;;
25319;SDS011;13256;49.012;8.610;2023-12-07T07:22:17;40.80;;;17.52;;
25319;SDS011;13256;49.012;8.610;2023-12-07T07:24:47;47.00;;;19.75;;
25319;SDS011;13256;49.012;8.610;2023-12-07T07:27:14;55.15;;;21.13;;
25319;SDS011;13256;49.012;8.610;2023-12-07T07:29:41;78.65;;;30.17;;
25319;SDS011;13256;49.012;8.610;2023-12-07T07:32:15;42.58;;;17.50;;
25319;SDS011;13256;49.012;8.610;2023-12-07T07:34:42;50.28;;;22.50;;
25319;SDS011;13256;49.012;8.610;2023-12-07T07:37:09;29.85;;;13.40;;
25319;SDS011;13256;49.012;8.610;2023-12-07T07:39:37;30.17;;;11.95;;
25319;SDS011;13256;49.012;8.610;2023-12-07T07:42:07;28.90;;;13.25;;
25319;SDS011;13256;49.012;8.610;2023-12-07T07:44:34;30.27;;;13.23;;
25319;SDS011;13256;49.012;8.610;2023-12-07T07:47:02;30.85;;;11.50;;
25319;SDS011;13256;49.012;8.610;2023-12-07T07:49:29;24.73;;;12.48;;
25319;SDS011;13256;49.012;8.610;2023-12-07T07:51:59;25.17;;;12.68;;
25319;SDS011;13256;49.012;8.610;2023-12-07T07:54:34;34.42;;;14.25;;
25319;SDS011;13256;49.012;8.610;2023-12-07T07:59:35;28.10;;;13.38;;
25319;SDS011;13256;49.012;8.610;2023-12-07T08:02:03;35.33;;;16.20;;
25319;SDS011;13256;49.012;8.610;2023-12-07T08:04:36;33.28;;;15.60;;
25319;SDS011;13256;49.012;8.610;2023-12-07T08:07:06;27.10;;;13.18;;
25319;SDS011;13256;49.012;8.610;2023-12-07T08:09:37;31.23;;;15.43;;
25319;SDS011;13256;49.012;8.610;2023-12-07T08:12:08;29.88;;;13.30;;
25319;SDS011;13256;49.012;8.610;2023-12-07T08:14:35;28.95;;;13.48;;
25319;SDS011;13256;49.012;8.610;2023-12-07T08:17:05;32.38;;;16.15;;
25319;SDS011;13256;49.012;8.610;2023-12-07T08:19:32;25.55;;;12.77;;
25319;SDS011;13256;49.012;8.610;2023-12-07T08:22:31;23.95;;;11.38;;
25319;SDS011;13256;49.012;8.610;2023-12-07T08:24:59;19.80;;;9.32;;
25319;SDS011;13256;49.012;8.610;2023-12-07T08:27:38;21.15;;;10.40;;
25319;SDS011;13256;49.012;8.610;2023-12-07T08:30:06;17.85;;;8.20;;
25319;SDS011;13256;49.012;8.610;2023-12-07T08:32:36;17.35;;;9.50;;
25319;SDS011;13256;49.012;8.610;2023-12-07T08:35:07;18.77;;;9.00;;
25319;SDS011;13256;49.012;8.610;2023-12-07T08:37:37;23.23;;;9.15;;
25319;SDS011;13256;49.012;8.610;2023-12-07T08:40:10;21.73;;;10.60;;
25319;SDS011;13256;49.012;8.610;2023-12-07T08:42:38;22.63;;;11.02;;
25319;SDS011;13256;49.012;8.610;2023-12-07T08:45:10;23.52;;;11.10;;
25319;SDS011;13256;49.012;8.610;2023-12-07T08:47:41;23.98;;;11.88;;
25319;SDS011;13256;49.012;8.610;2023-12-07T08:50:16;26.33;;;13.05;;
25319;SDS011;13256;49.012;8.610;2023-12-07T08:55:47;28.02;;;11.82;;
25319;SDS011;13256;49.012;8.610;2023-12-07T08:58:20;22.23;;;10.63;;
25319;SDS011;13256;49.012;8.610;2023-12-07T09:00:55;17.33;;;10.07;;
25319;SDS011;13256;49.012;8.610;2023-12-07T09:03:22;20.15;;;10.23;;
25319;SDS011;13256;49.012;8.610;2023-12-07T09:05:54;20.80;;;10.63;;
25319;SDS011;13256;49.012;8.610;2023-12-07T09:08:23;25.10;;;11.52;;
25319;SDS011;13256;49.012;8.610;2023-12-07T09:10:54;21.15;;;10.63;;
25319;SDS011;13256;49.012;8.610;2023-12-07T09:13:24;27.90;;;11.63;;
25319;SDS011;13256;49.012;8.610;2023-12-07T09:15:52;19.70;;;10.85;;
25319;SDS011;13256;49.012;8.610;2023-12-07T09:18:25;19.42;;;9.57;;
25319;SDS011;13256;49.012;8.610;2023-12-07T09:20:54;19.48;;;8.90;;
25319;SDS011;13256;49.012;8.610;2023-12-07T09:23:22;19.80;;;9.07;;
25319;SDS011;13256;49.012;8.610;2023-12-07T09:25:52;16.98;;;8.63;;
25319;SDS011;13256;49.012;8.610;2023-12-07T09:28:22;23.38;;;9.82;;
25319;SDS011;13256;49.012;8.610;2023-12-07T09:30:50;15.63;;;8.80;;
25319;SDS011;13256;49.012;8.610;2023-12-07T09:33:20;14.55;;;8.15;;
25319;SDS011;13256;49.012;8.610;2023-12-07T09:35:48;13.43;;;8.02;;
25319;SDS011;13256;49.012;8.610;2023-12-07T09:38:16;14.73;;;8.18;;
25319;SDS011;13256;49.012;8.610;2023-12-07T09:40:43;16.67;;;10.15;;
25319;SDS011;13256;49.012;8.610;2023-12-07T09:43:15;15.30;;;9.77;;
25319;SDS011;13256;49.012;8.610;2023-12-07T09:45:44;17.42;;;7.43;;
25319;SDS011;13256;49.012;8.610;2023-12-07T09:48:11;13.57;;;7.45;;
25319;SDS011;13256;49.012;8.610;2023-12-07T09:50:39;12.45;;;7.18;;
25319;SDS011;13256;49.012;8.610;2023-12-07T09:53:07;13.48;;;8.20;;
25319;SDS011;13256;49.012;8.610;2023-12-07T09:55:40;14.52;;;7.57;;
25319;SDS011;13256;49.012;8.610;2023-12-07T09:58:07;11.75;;;7.20;;
25319;SDS011;13256;49.012;8.610;2023-12-07T10:00:39;12.60;;;6.83;;
25319;SDS011;13256;49.012;8.610;2023-12-07T10:03:07;13.07;;;7.13;;
25319;SDS011;13256;49.012;8.610;2023-12-07T10:22:28;11.00;;;6.53;;
25319;SDS011;13256;49.012;8.610;2023-12-07T10:24:59;10.57;;;5.72;;
25319;SDS011;13256;49.012;8.610;2023-12-07T10:27:29;13.40;;;6.97;;
25319;SDS011;13256;49.012;8.610;2023-12-07T10:30:01;20.07;;;8.33;;
25319;SDS011;13256;49.012;8.610;2023-12-07T10:32:28;11.00;;;6.80;;
25319;SDS011;13256;49.012;8.610;2023-12-07T10:35:00;10.95;;;6.50;;
25319;SDS011;13256;49.012;8.610;2023-12-07T10:37:32;10.32;;;6.25;;
25319;SDS011;13256;49.012;8.610;2023-12-07T10:40:02;16.13;;;7.82;;
25319;SDS011;13256;49.012;8.610;2023-12-07T10:42:32;18.25;;;8.88;;
25319;SDS011;13256;49.012;8.610;2023-12-07T10:45:10;16.13;;;7.53;;
25319;SDS011;13256;49.012;8.610;2023-12-07T10:47:43;59.03;;;18.23;;
25319;SDS011;13256;49.012;8.610;2023-12-07T10:50:10;33.83;;;11.98;;
25319;SDS011;13256;49.012;8.610;2023-12-07T10:52:44;22.13;;;8.48;;
25319;SDS011;13256;49.012;8.610;2023-12-07T10:55:20;17.38;;;8.88;;
25319;SDS011;13256;49.012;8.610;2023-12-07T10:57:51;18.17;;;8.43;;
25319;SDS011;13256;49.012;8.610;2023-12-07T11:00:22;18.35;;;7.05;;
25319;SDS011;13256;49.012;8.610;2023-12-07T11:03:06;18.05;;;8.40;;
25319;SDS011;13256;49.012;8.610;2023-12-07T11:05:39;15.13;;;6.93;;
25319;SDS011;13256;49.012;8.610;2023-12-07T11:08:09;19.17;;;8.65;;
25319;SDS011;13256;49.012;8.610;2023-12-07T11:15:58;11.82;;;6.63;;
25319;SDS011;13256;49.012;8.610;2023-12-07T11:18:31;8.48;;;5.13;;
25319;SDS011;13256;49.012;8.610;2023-12-07T11:20:59;10.68;;;6.45;;
25319;SDS011;13256;49.012;8.610;2023-12-07T11:23:27;6.88;;;4.38;;
25319;SDS011;13256;49.012;8.610;2023-12-07T11:25:56;7.22;;;4.70;;
25319;SDS011;13256;49.012;8.610;2023-12-07T11:31:25;7.25;;;3.85;;
25319;SDS011;13256;49.012;8.610;2023-12-07T11:33:52;6.55;;;4.25;;
25319;SDS011;13256;49.012;8.610;2023-12-07T11:36:46;8.32;;;3.97;;
25319;SDS011;13256;49.012;8.610;2023-12-07T11:42:05;6.88;;;3.67;;
25319;SDS011;13256;49.012;8.610;2023-12-07T11:44:45;7.72;;;3.67;;
25319;SDS011;13256;49.012;8.610;2023-12-07T11:47:20;6.05;;;3.50;;
25319;SDS011;13256;49.012;8.610;2023-12-07T11:49:53;6.78;;;4.10;;
25319;SDS011;13256;49.012;8.610;2023-12-07T11:52:29;6.68;;;4.00;;
25319;SDS011;13256;49.012;8.610;2023-12-07T11:54:56;8.35;;;4.07;;
25319;SDS011;13256;49.012;8.610;2023-12-07T11:57:24;11.48;;;5.20;;
25319;SDS011;13256;49.012;8.610;2023-12-07T11:59:55;9.20;;;4.63;;
25319;SDS011;13256;49.012;8.610;2023-12-07T12:02:22;8.38;;;4.57;;
25319;SDS011;13256;49.012;8.610;2023-12-07T12:04:49;12.02;;;4.75;;
25319;SDS011;13256;49.012;8.610;2023-12-07T12:07:16;8.85;;;5.03;;
25319;SDS011;13256;49.012;8.610;2023-12-07T12:09:51;8.43;;;4.97;;
25319;SDS011;13256;49.012;8.610;2023-12-07T12:12:19;13.70;;;5.07;;
25319;SDS011;13256;49.012;8.610;2023-12-07T12:14:47;10.82;;;5.15;;
25319;SDS011;13256;49.012;8.610;2023-12-07T12:17:15;6.82;;;4.20;;
25319;SDS011;13256;49.012;8.610;2023-12-07T12:19:51;8.48;;;4.30;;
25319;SDS011;13256;49.012;8.610;2023-12-07T12:22:25;8.00;;;4.63;;
25319;SDS011;13256;49.012;8.610;2023-12-07T12:24:53;9.27;;;5.28;;
25319;SDS011;13256;49.012;8.610;2023-12-07T12:27:23;10.27;;;5.13;;
25319;SDS011;13256;49.012;8.610;2023-12-07T12:29:51;10.38;;;4.90;;
25319;SDS011;13256;49.012;8.610;2023-12-07T12:32:21;11.23;;;5.55;;
25319;SDS011;13256;49.012;8.610;2023-12-07T12:34:53;10.98;;;5.38;;
25319;SDS011;13256;49.012;8.610;2023-12-07T12:37:20;13.52;;;6.15;;
25319;SDS011;13256;49.012;8.610;2023-12-07T12:39:48;19.85;;;7.80;;
25319;SDS011;13256;49.012;8.610;2023-12-07T12:42:16;13.48;;;6.53;;
25319;SDS011;13256;49.012;8.610;2023-12-07T12:44:42;8.35;;;5.28;;
25319;SDS011;13256;49.012;8.610;2023-12-07T12:47:12;10.50;;;5.82;;
25319;SDS011;13256;49.012;8.610;2023-12-07T12:53:44;11.93;;;6.22;;
25319;SDS011;13256;49.012;8.610;2023-12-07T12:59:10;20.08;;;10.50;;
25319;SDS011;13256;49.012;8.610;2023-12-07T13:01:38;9.95;;;6.18;;
25319;SDS011;13256;49.012;8.610;2023-12-07T13:04:09;14.88;;;6.10;;
25319;SDS011;13256;49.012;8.610;2023-12-07T13:06:39;14.63;;;6.90;;
25319;SDS011;13256;49.012;8.610;2023-12-07T13:09:06;11.80;;;5.97;;
25319;SDS011;13256;49.012;8.610;2023-12-07T13:11:39;11.57;;;6.45;;
25319;SDS011;13256;49.012;8.610;2023-12-07T13:14:12;19.48;;;7.30;;
25319;SDS011;13256;49.012;8.610;2023-12-07T13:16:41;17.02;;;7.75;;
25319;SDS011;13256;49.012;8.610;2023-12-07T13:22:37;16.00;;;8.35;;
25319;SDS011;13256;49.012;8.610;2023-12-07T13:25:08;12.77;;;6.47;;
25319;SDS011;13256;49.012;8.610;2023-12-07T13:27:38;14.43;;;7.03;;
25319;SDS011;13256;49.012;8.610;2023-12-07T13:30:06;12.20;;;7.25;;
25319;SDS011;13256;49.012;8.610;2023-12-07T13:32:37;14.65;;;7.43;;
25319;SDS011;13256;49.012;8.610;2023-12-07T13:35:06;13.35;;;7.28;;
25319;SDS011;13256;49.012;8.610;2023-12-07T13:37:36;15.00;;;7.10;;
25319;SDS011;13256;49.012;8.610;2023-12-07T13:40:03;12.05;;;6.75;;
25319;SDS011;13256;49.012;8.610;2023-12-07T13:42:38;13.55;;;6.80;;
25319;SDS011;13256;49.012;8.610;2023-12-07T13:45:05;15.55;;;7.70;;
25319;SDS011;13256;49.012;8.610;2023-12-07T13:50:21;16.42;;;7.57;;
25319;SDS011;13256;49.012;8.610;2023-12-07T13:53:44;12.50;;;6.20;;
25319;SDS011;13256;49.012;8.610;2023-12-07T13:56:11;9.32;;;6.28;;
25319;SDS011;13256;49.012;8.610;2023-12-07T13:58:38;10.13;;;6.15;;
25319;SDS011;13256;49.012;8.610;2023-12-07T14:01:08;11.55;;;5.90;;
25319;SDS011;13256;49.012;8.610;2023-12-07T14:03:35;15.35;;;5.97;;
25319;SDS011;13256;49.012;8.610;2023-12-07T14:06:04;13.43;;;6.20;;
25319;SDS011;13256;49.012;8.610;2023-12-07T14:08:44;13.32;;;5.75;;
25319;SDS011;13256;49.012;8.610;2023-12-07T14:11:11;13.25;;;6.60;;
25319;SDS011;13256;49.012;8.610;2023-12-07T14:13:40;13.48;;;6.20;;
25319;SDS011;13256;49.012;8.610;2023-12-07T14:16:09;15.85;;;6.50;;
25319;SDS011;13256;49.012;8.610;2023-12-07T14:18:47;12.10;;;6.00;;
25319;SDS011;13256;49.012;8.610;2023-12-07T14:21:34;19.92;;;11.13;;
25319;SDS011;13256;49.012;8.610;2023-12-07T14:24:12;16.35;;;8.93;;
25319;SDS011;13256;49.012;8.610;2023-12-07T14:26:41;16.73;;;8.52;;
25319;SDS011;13256;49.012;8.610;2023-12-07T14:35:21;13.15;;;5.30;;
25319;SDS011;13256;49.012;8.610;2023-12-07T14:38:31;13.93;;;6.40;;
25319;SDS011;13256;49.012;8.610;2023-12-07T14:40:58;14.38;;;6.65;;
25319;SDS011;13256;49.012;8.610;2023-12-07T14:43:25;16.95;;;8.13;;
25319;SDS011;13256;49.012;8.610;2023-12-07T14:48:49;11.43;;;5.93;;
25319;SDS011;13256;49.012;8.610;2023-12-07T14:51:19;15.48;;;6.28;;
25319;SDS011;13256;49.012;8.610;2023-12-07T14:56:16;9.23;;;5.28;;
25319;SDS011;13256;49.012;8.610;2023-12-07T14:58:44;8.27;;;4.85;;
25319;SDS011;13256;49.012;8.610;2023-12-07T15:01:16;69.32;;;18.83;;
25319;SDS011;13256;49.012;8.610;2023-12-07T15:03:44;16.38;;;7.47;;
25319;SDS011;13256;49.012;8.610;2023-12-07T15:06:11;19.65;;;7.53;;
25319;SDS011;13256;49.012;8.610;2023-12-07T15:08:40;16.23;;;8.90;;
25319;SDS011;13256;49.012;8.610;2023-12-07T15:11:07;18.40;;;8.27;;
25319;SDS011;13256;49.012;8.610;2023-12-07T15:13:35;16.83;;;8.27;;
25319;SDS011;13256;49.012;8.610;2023-12-07T15:16:02;13.80;;;7.40;;
25319;SDS011;13256;49.012;8.610;2023-12-07T15:18:34;16.15;;;6.18;;
25319;SDS011;13256;49.012;8.610;2023-12-07T15:21:03;12.95;;;6.85;;
25319;SDS011;13256;49.012;8.610;2023-12-07T15:23:31;20.25;;;10.43;;
25319;SDS011;13256;49.012;8.610;2023-12-07T15:25:58;23.40;;;11.05;;
25319;SDS011;13256;49.012;8.610;2023-12-07T15:28:31;17.70;;;8.50;;
25319;SDS011;13256;49.012;8.610;2023-12-07T15:30:58;12.05;;;6.30;;
25319;SDS011;13256;49.012;8.610;2023-12-07T15:33:28;18.40;;;9.70;;
25319;SDS011;13256;49.012;8.610;2023-12-07T15:35:57;10.90;;;5.28;;
25319;SDS011;13256;49.012;8.610;2023-12-07T15:38:30;13.00;;;5.38;;
25319;SDS011;13256;49.012;8.610;2023-12-07T15:41:00;14.73;;;6.57;;
25319;SDS011;13256;49.012;8.610;2023-12-07T15:43:29;11.43;;;5.90;;
25319;SDS011;13256;49.012;8.610;2023-12-07T15:45:56;14.35;;;5.75;;
25319;SDS011;13256;49.012;8.610;2023-12-07T15:48:23;11.23;;;5.97;;
25319;SDS011;13256;49.012;8.610;2023-12-07T15:50:51;9.85;;;4.80;;
25319;SDS011;13256;49.012;8.610;2023-12-07T15:53:25;12.25;;;5.72;;
25319;SDS011;13256;49.012;8.610;2023-12-07T15:55:56;8.90;;;5.38;;
25319;SDS011;13256;49.012;8.610;2023-12-07T15:58:22;8.73;;;4.97;;
25319;SDS011;13256;49.012;8.610;2023-12-07T16:00:50;10.52;;;5.07;;
25319;SDS011;13256;49.012;8.610;2023-12-07T16:03:17;6.88;;;4.30;;
25319;SDS011;13256;49.012;8.610;2023-12-07T16:05:46;8.02;;;4.45;;
25319;SDS011;13256;49.012;8.610;2023-12-07T16:08:14;8.95;;;4.38;;
25319;SDS011;13256;49.012;8.610;2023-12-07T16:10:47;7.15;;;4.32;;
25319;SDS011;13256;49.012;8.610;2023-12-07T16:13:16;6.63;;;3.72;;
25319;SDS011;13256;49.012;8.610;2023-12-07T16:15:44;8.32;;;3.97;;
25319;SDS011;13256;49.012;8.610;2023-12-07T16:18:16;8.93;;;4.68;;
25319;SDS011;13256;49.012;8.610;2023-12-07T16:20:44;10.13;;;5.22;;
25319;SDS011;13256;49.012;8.610;2023-12-07T16:23:11;10.23;;;4.95;;
25319;SDS011;13256;49.012;8.610;2023-12-07T16:25:39;15.20;;;6.30;;
25319;SDS011;13256;49.012;8.610;2023-12-07T16:28:06;21.25;;;10.10;;
25319;SDS011;13256;49.012;8.610;2023-12-07T16:30:35;18.25;;;7.28;;
25319;SDS011;13256;49.012;8.610;2023-12-07T16:33:17;11.10;;;5.38;;
25319;SDS011;13256;49.012;8.610;2023-12-07T16:35:45;10.68;;;4.90;;
25319;SDS011;13256;49.012;8.610;2023-12-07T16:38:12;11.30;;;4.90;;
25319;SDS011;13256;49.012;8.610;2023-12-07T16:40:39;7.50;;;4.03;;
25319;SDS011;13256;49.012;8.610;2023-12-07T16:43:06;8.45;;;3.40;;
25319;SDS011;13256;49.012;8.610;2023-12-07T16:45:34;11.68;;;4.20;;
25319;SDS011;13256;49.012;8.610;2023-12-07T16:48:04;9.65;;;4.40;;
25319;SDS011;13256;49.012;8.610;2023-12-07T16:50:31;10.90;;;5.38;;
25319;SDS011;13256;49.012;8.610;2023-12-07T16:53:01;7.72;;;4.78;;
25319;SDS011;13256;49.012;8.610;2023-12-07T16:55:27;10.43;;;5.75;;
25319;SDS011;13256;49.012;8.610;2023-12-07T16:57:55;13.50;;;7.20;;
25319;SDS011;13256;49.012;8.610;2023-12-07T17:00:26;10.25;;;5.45;;
25319;SDS011;13256;49.012;8.610;2023-12-07T17:02:54;14.18;;;5.47;;
25319;SDS011;13256;49.012;8.610;2023-12-07T17:05:21;8.68;;;3.72;;
25319;SDS011;13256;49.012;8.610;2023-12-07T17:08:14;9.05;;;3.85;;
25319;SDS011;13256;49.012;8.610;2023-12-07T17:10:46;10.20;;;4.20;;
25319;SDS011;13256;49.012;8.610;2023-12-07T17:13:13;14.02;;;5.82;;
25319;SDS011;13256;49.012;8.610;2023-12-07T17:15:48;18.05;;;8.80;;
25319;SDS011;13256;49.012;8.610;2023-12-07T17:18:18;8.02;;;4.63;;
25319;SDS011;13256;49.012;8.610;2023-12-07T17:20:55;12.73;;;4.78;;
25319;SDS011;13256;49.012;8.610;2023-12-07T17:24:12;15.75;;;7.28;;
25319;SDS011;13256;49.012;8.610;2023-12-07T17:29:48;16.70;;;6.47;;
25319;SDS011;13256;49.012;8.610;2023-12-07T17:32:16;24.92;;;9.02;;
25319;SDS011;13256;49.012;8.610;2023-12-07T17:34:46;31.50;;;10.98;;
25319;SDS011;13256;49.012;8.610;2023-12-07T17:37:26;26.33;;;8.95;;
25319;SDS011;13256;49.012;8.610;2023-12-07T17:39:57;20.45;;;7.28;;
25319;SDS011;13256;49.012;8.610;2023-12-07T17:42:26;16.90;;;6.25;;
25319;SDS011;13256;49.012;8.610;2023-12-07T17:44:57;9.63;;;4.90;;
25319;SDS011;13256;49.012;8.610;2023-12-07T17:48:02;7.90;;;4.15;;
25319;SDS011;13256;49.012;8.610;2023-12-07T17:50:34;6.15;;;3.60;;
25319;SDS011;13256;49.012;8.610;2023-12-07T17:53:12;11.98;;;4.00;;
25319;SDS011;13256;49.012;8.610;2023-12-07T17:56:06;11.65;;;4.40;;
25319;SDS011;13256;49.012;8.610;2023-12-07T17:58:37;7.78;;;4.13;;
25319;SDS011;13256;49.012;8.610;2023-12-07T18:01:04;7.13;;;4.35;;
25319;SDS011;13256;49.012;8.610;2023-12-07T18:03:33;7.15;;;3.72;;
25319;SDS011;13256;49.012;8.610;2023-12-07T18:06:08;6.55;;;3.58;;
25319;SDS011;13256;49.012;8.610;2023-12-07T18:08:37;6.38;;;3.33;;
25319;SDS011;13256;49.012;8.610;2023-12-07T18:11:08;6.90;;;3.50;;
25319;SDS011;13256;49.012;8.610;2023-12-07T18:13:37;7.35;;;3.80;;
25319;SDS011;13256;49.012;8.610;2023-12-07T18:16:16;7.70;;;4.13;;
25319;SDS011;13256;49.012;8.610;2023-12-07T18:19:22;13.07;;;4.85;;